sensor_id;sensor_type;location;lat;lon;timestamp;P1;durP1;ratioP1;P2;durP2;ratioP2
29416;SDS011;28421;51.030;4.006;2024-02-04T00:01:55;5.43;;;3.55;;
29416;SDS011;28421;51.030;4.006;2024-02-04T00:04:20;2.90;;;2.10;;
29416;SDS011;28421;51.030;4.006;2024-02-04T00:06:46;3.97;;;2.20;;
29416;SDS011;28421;51.030;4.006;2024-02-04T00:09:11;3.58;;;2.40;;
29416;SDS011;28421;51.030;4.006;2024-02-04T00:11:37;7.07;;;2.58;;
29416;SDS011;28421;51.030;4.006;2024-02-04T00:14:03;4.32;;;2.15;;
29416;SDS011;28421;51.030;4.006;2024-02-04T00:16:29;6.22;;;3.05;;
29416;SDS011;28421;51.030;4.006;2024-02-04T00:18:55;2.78;;;2.35;;
29416;SDS011;28421;51.030;4.006;2024-02-04T00:21:21;2.60;;;2.15;;
29416;SDS011;28421;51.030;4.006;2024-02-04T00:23:46;8.90;;;2.65;;
29416;SDS011;28421;51.030;4.006;2024-02-04T00:26:12;2.25;;;1.48;;
29416;SDS011;28421;51.030;4.006;2024-02-04T00:28:37;2.88;;;2.30;;
29416;SDS011;28421;51.030;4.006;2024-02-04T00:31:04;4.15;;;2.47;;
29416;SDS011;28421;51.030;4.006;2024-02-04T00:33:30;2.17;;;2.00;;
29416;SDS011;28421;51.030;4.006;2024-02-04T00:35:56;2.10;;;1.90;;
29416;SDS011;28421;51.030;4.006;2024-02-04T00:38:21;2.08;;;1.90;;
29416;SDS011;28421;51.030;4.006;2024-02-04T00:40:47;6.32;;;3.08;;
29416;SDS011;28421;51.030;4.006;2024-02-04T00:43:12;7.13;;;1.90;;
29416;SDS011;28421;51.030;4.006;2024-02-04T00:45:37;3.30;;;2.25;;
29416;SDS011;28421;51.030;4.006;2024-02-04T00:48:03;5.72;;;2.55;;
29416;SDS011;28421;51.030;4.006;2024-02-04T00:50:29;4.90;;;2.58;;
29416;SDS011;28421;51.030;4.006;2024-02-04T00:52:55;2.78;;;2.42;;
29416;SDS011;28421;51.030;4.006;2024-02-04T00:55:21;4.63;;;2.25;;
29416;SDS011;28421;51.030;4.006;2024-02-04T00:57:46;3.90;;;2.83;;
29416;SDS011;28421;51.030;4.006;2024-02-04T01:00:12;1.98;;;1.88;;
29416;SDS011;28421;51.030;4.006;2024-02-04T01:02:40;8.32;;;2.05;;
29416;SDS011;28421;51.030;4.006;2024-02-04T01:05:06;3.38;;;2.75;;
29416;SDS011;28421;51.030;4.006;2024-02-04T01:07:32;3.28;;;1.83;;
29416;SDS011;28421;51.030;4.006;2024-02-04T01:09:57;3.65;;;2.63;;
29416;SDS011;28421;51.030;4.006;2024-02-04T01:12:23;2.55;;;2.22;;
29416;SDS011;28421;51.030;4.006;2024-02-04T01:14:48;3.63;;;2.75;;
29416;SDS011;28421;51.030;4.006;2024-02-04T01:17:14;2.85;;;2.65;;
29416;SDS011;28421;51.030;4.006;2024-02-04T01:19:39;2.45;;;2.10;;
29416;SDS011;28421;51.030;4.006;2024-02-04T01:22:05;4.03;;;2.90;;
29416;SDS011;28421;51.030;4.006;2024-02-04T01:24:31;3.80;;;2.40;;
29416;SDS011;28421;51.030;4.006;2024-02-04T01:26:57;3.00;;;2.70;;
29416;SDS011;28421;51.030;4.006;2024-02-04T01:29:22;4.45;;;2.72;;
29416;SDS011;28421;51.030;4.006;2024-02-04T01:31:48;2.13;;;1.63;;
29416;SDS011;28421;51.030;4.006;2024-02-04T01:34:13;2.00;;;1.80;;
29416;SDS011;28421;51.030;4.006;2024-02-04T01:36:38;2.88;;;2.35;;
29416;SDS011;28421;51.030;4.006;2024-02-04T01:39:04;6.05;;;3.25;;
29416;SDS011;28421;51.030;4.006;2024-02-04T01:41:30;3.33;;;2.65;;
29416;SDS011;28421;51.030;4.006;2024-02-04T01:43:56;6.28;;;3.35;;
29416;SDS011;28421;51.030;4.006;2024-02-04T01:46:21;6.72;;;3.47;;
29416;SDS011;28421;51.030;4.006;2024-02-04T01:48:47;5.72;;;3.88;;
29416;SDS011;28421;51.030;4.006;2024-02-04T01:51:16;3.80;;;2.95;;
29416;SDS011;28421;51.030;4.006;2024-02-04T01:53:44;6.30;;;3.95;;
29416;SDS011;28421;51.030;4.006;2024-02-04T01:56:11;6.28;;;3.75;;
29416;SDS011;28421;51.030;4.006;2024-02-04T01:58:38;7.45;;;4.38;;
29416;SDS011;28421;51.030;4.006;2024-02-04T02:01:04;11.73;;;4.78;;
29416;SDS011;28421;51.030;4.006;2024-02-04T02:03:30;5.88;;;3.63;;
29416;SDS011;28421;51.030;4.006;2024-02-04T02:05:57;11.90;;;3.72;;
29416;SDS011;28421;51.030;4.006;2024-02-04T02:08:23;14.63;;;4.13;;
29416;SDS011;28421;51.030;4.006;2024-02-04T02:10:48;9.90;;;3.55;;
29416;SDS011;28421;51.030;4.006;2024-02-04T02:13:23;3.30;;;3.00;;
29416;SDS011;28421;51.030;4.006;2024-02-04T02:15:56;4.25;;;3.42;;
29416;SDS011;28421;51.030;4.006;2024-02-04T02:18:37;8.75;;;5.47;;
29416;SDS011;28421;51.030;4.006;2024-02-04T02:23:40;9.25;;;4.45;;
29416;SDS011;28421;51.030;4.006;2024-02-04T02:26:13;6.05;;;4.10;;
29416;SDS011;28421;51.030;4.006;2024-02-04T02:28:40;6.15;;;3.90;;
29416;SDS011;28421;51.030;4.006;2024-02-04T02:31:06;6.00;;;3.85;;
29416;SDS011;28421;51.030;4.006;2024-02-04T02:33:32;7.75;;;3.72;;
29416;SDS011;28421;51.030;4.006;2024-02-04T02:35:58;7.32;;;4.60;;
29416;SDS011;28421;51.030;4.006;2024-02-04T02:41:15;6.28;;;4.32;;
29416;SDS011;28421;51.030;4.006;2024-02-04T02:43:41;5.88;;;3.90;;
29416;SDS011;28421;51.030;4.006;2024-02-04T02:46:09;2.78;;;2.47;;
29416;SDS011;28421;51.030;4.006;2024-02-04T02:48:35;4.55;;;3.40;;
29416;SDS011;28421;51.030;4.006;2024-02-04T02:51:01;6.25;;;4.30;;
29416;SDS011;28421;51.030;4.006;2024-02-04T02:53:27;4.15;;;3.75;;
29416;SDS011;28421;51.030;4.006;2024-02-04T02:55:53;6.40;;;4.18;;
29416;SDS011;28421;51.030;4.006;2024-02-04T02:58:19;4.40;;;3.53;;
29416;SDS011;28421;51.030;4.006;2024-02-04T03:00:44;5.30;;;4.03;;
29416;SDS011;28421;51.030;4.006;2024-02-04T03:03:10;5.60;;;4.00;;
29416;SDS011;28421;51.030;4.006;2024-02-04T03:05:36;6.35;;;3.80;;
29416;SDS011;28421;51.030;4.006;2024-02-04T03:08:02;4.53;;;3.17;;
29416;SDS011;28421;51.030;4.006;2024-02-04T03:10:28;9.93;;;4.28;;
29416;SDS011;28421;51.030;4.006;2024-02-04T03:12:53;4.30;;;3.45;;
29416;SDS011;28421;51.030;4.006;2024-02-04T03:15:19;3.72;;;3.35;;
29416;SDS011;28421;51.030;4.006;2024-02-04T03:17:44;6.25;;;3.10;;
29416;SDS011;28421;51.030;4.006;2024-02-04T03:20:10;6.72;;;4.10;;
29416;SDS011;28421;51.030;4.006;2024-02-04T03:22:36;2.58;;;2.38;;
29416;SDS011;28421;51.030;4.006;2024-02-04T03:25:01;2.30;;;2.10;;
29416;SDS011;28421;51.030;4.006;2024-02-04T03:27:27;2.08;;;1.95;;
29416;SDS011;28421;51.030;4.006;2024-02-04T03:29:52;5.35;;;2.90;;
29416;SDS011;28421;51.030;4.006;2024-02-04T03:32:18;2.63;;;2.40;;
29416;SDS011;28421;51.030;4.006;2024-02-04T03:34:44;2.72;;;2.22;;
29416;SDS011;28421;51.030;4.006;2024-02-04T03:37:10;10.90;;;2.63;;
29416;SDS011;28421;51.030;4.006;2024-02-04T03:39:36;4.63;;;3.65;;
29416;SDS011;28421;51.030;4.006;2024-02-04T03:42:01;2.97;;;2.70;;
29416;SDS011;28421;51.030;4.006;2024-02-04T03:44:27;2.20;;;2.00;;
29416;SDS011;28421;51.030;4.006;2024-02-04T03:46:52;5.97;;;3.58;;
29416;SDS011;28421;51.030;4.006;2024-02-04T03:49:18;3.75;;;2.60;;
29416;SDS011;28421;51.030;4.006;2024-02-04T03:51:43;2.90;;;2.55;;
29416;SDS011;28421;51.030;4.006;2024-02-04T03:54:09;6.13;;;2.95;;
29416;SDS011;28421;51.030;4.006;2024-02-04T03:56:34;4.40;;;3.40;;
29416;SDS011;28421;51.030;4.006;2024-02-04T03:59:00;3.67;;;1.90;;
29416;SDS011;28421;51.030;4.006;2024-02-04T04:01:26;3.28;;;2.38;;
29416;SDS011;28421;51.030;4.006;2024-02-04T04:03:51;5.95;;;3.53;;
29416;SDS011;28421;51.030;4.006;2024-02-04T04:06:17;1.90;;;1.65;;
29416;SDS011;28421;51.030;4.006;2024-02-04T04:08:42;2.30;;;2.03;;
29416;SDS011;28421;51.030;4.006;2024-02-04T04:11:08;2.10;;;1.92;;
29416;SDS011;28421;51.030;4.006;2024-02-04T04:13:34;2.28;;;1.83;;
29416;SDS011;28421;51.030;4.006;2024-02-04T04:16:01;3.90;;;3.28;;
29416;SDS011;28421;51.030;4.006;2024-02-04T04:18:27;8.05;;;2.90;;
29416;SDS011;28421;51.030;4.006;2024-02-04T04:20:52;2.65;;;2.40;;
29416;SDS011;28421;51.030;4.006;2024-02-04T04:23:18;2.47;;;1.88;;
29416;SDS011;28421;51.030;4.006;2024-02-04T04:25:43;2.63;;;2.03;;
29416;SDS011;28421;51.030;4.006;2024-02-04T04:28:09;6.63;;;2.50;;
29416;SDS011;28421;51.030;4.006;2024-02-04T04:30:34;2.45;;;2.25;;
29416;SDS011;28421;51.030;4.006;2024-02-04T04:33:00;5.25;;;3.08;;
29416;SDS011;28421;51.030;4.006;2024-02-04T04:35:25;5.10;;;3.67;;
29416;SDS011;28421;51.030;4.006;2024-02-04T04:37:51;3.45;;;2.45;;
29416;SDS011;28421;51.030;4.006;2024-02-04T04:40:17;6.50;;;2.63;;
29416;SDS011;28421;51.030;4.006;2024-02-04T04:42:43;7.32;;;4.07;;
29416;SDS011;28421;51.030;4.006;2024-02-04T04:45:09;2.45;;;1.85;;
29416;SDS011;28421;51.030;4.006;2024-02-04T04:47:36;3.00;;;2.20;;
29416;SDS011;28421;51.030;4.006;2024-02-04T04:50:02;1.70;;;1.60;;
29416;SDS011;28421;51.030;4.006;2024-02-04T04:52:27;3.70;;;1.95;;
29416;SDS011;28421;51.030;4.006;2024-02-04T04:54:53;2.53;;;1.83;;
29416;SDS011;28421;51.030;4.006;2024-02-04T04:57:20;2.17;;;1.58;;
29416;SDS011;28421;51.030;4.006;2024-02-04T04:59:45;2.92;;;2.65;;
29416;SDS011;28421;51.030;4.006;2024-02-04T05:02:11;2.08;;;1.58;;
29416;SDS011;28421;51.030;4.006;2024-02-04T05:04:36;1.63;;;1.42;;
29416;SDS011;28421;51.030;4.006;2024-02-04T05:07:02;3.10;;;2.13;;
29416;SDS011;28421;51.030;4.006;2024-02-04T05:09:27;3.75;;;2.45;;
29416;SDS011;28421;51.030;4.006;2024-02-04T05:11:53;4.00;;;2.33;;
29416;SDS011;28421;51.030;4.006;2024-02-04T05:14:18;2.05;;;1.90;;
29416;SDS011;28421;51.030;4.006;2024-02-04T05:16:45;2.28;;;1.75;;
29416;SDS011;28421;51.030;4.006;2024-02-04T05:19:11;2.15;;;1.85;;
29416;SDS011;28421;51.030;4.006;2024-02-04T05:21:40;1.98;;;1.38;;
29416;SDS011;28421;51.030;4.006;2024-02-04T05:24:06;6.18;;;4.10;;
29416;SDS011;28421;51.030;4.006;2024-02-04T05:26:31;2.10;;;1.65;;
29416;SDS011;28421;51.030;4.006;2024-02-04T05:28:57;2.30;;;1.98;;
29416;SDS011;28421;51.030;4.006;2024-02-04T05:31:23;2.05;;;1.90;;
29416;SDS011;28421;51.030;4.006;2024-02-04T05:33:48;3.28;;;3.03;;
29416;SDS011;28421;51.030;4.006;2024-02-04T05:36:16;3.00;;;2.42;;
29416;SDS011;28421;51.030;4.006;2024-02-04T05:38:43;3.00;;;2.70;;
29416;SDS011;28421;51.030;4.006;2024-02-04T05:41:10;2.92;;;2.53;;
29416;SDS011;28421;51.030;4.006;2024-02-04T05:43:35;6.03;;;4.00;;
29416;SDS011;28421;51.030;4.006;2024-02-04T05:46:01;5.07;;;4.05;;
29416;SDS011;28421;51.030;4.006;2024-02-04T05:48:27;2.92;;;2.47;;
29416;SDS011;28421;51.030;4.006;2024-02-04T05:50:52;3.33;;;2.75;;
29416;SDS011;28421;51.030;4.006;2024-02-04T05:53:19;3.35;;;3.05;;
29416;SDS011;28421;51.030;4.006;2024-02-04T05:55:44;6.13;;;3.13;;
29416;SDS011;28421;51.030;4.006;2024-02-04T05:58:11;4.20;;;2.40;;
29416;SDS011;28421;51.030;4.006;2024-02-04T06:00:38;4.32;;;3.33;;
29416;SDS011;28421;51.030;4.006;2024-02-04T06:03:04;3.72;;;3.38;;
29416;SDS011;28421;51.030;4.006;2024-02-04T06:05:29;2.03;;;1.85;;
29416;SDS011;28421;51.030;4.006;2024-02-04T06:07:55;2.70;;;2.45;;
29416;SDS011;28421;51.030;4.006;2024-02-04T06:10:20;2.67;;;2.40;;
29416;SDS011;28421;51.030;4.006;2024-02-04T06:12:46;4.60;;;2.78;;
29416;SDS011;28421;51.030;4.006;2024-02-04T06:15:12;1.52;;;1.42;;
29416;SDS011;28421;51.030;4.006;2024-02-04T06:17:39;6.20;;;2.63;;
29416;SDS011;28421;51.030;4.006;2024-02-04T06:20:05;3.42;;;2.78;;
29416;SDS011;28421;51.030;4.006;2024-02-04T06:22:30;3.50;;;2.88;;
29416;SDS011;28421;51.030;4.006;2024-02-04T06:24:56;2.97;;;2.78;;
29416;SDS011;28421;51.030;4.006;2024-02-04T06:27:21;3.60;;;2.50;;
29416;SDS011;28421;51.030;4.006;2024-02-04T06:29:47;2.53;;;2.33;;
29416;SDS011;28421;51.030;4.006;2024-02-04T06:32:12;4.05;;;2.42;;
29416;SDS011;28421;51.030;4.006;2024-02-04T06:34:38;3.92;;;2.83;;
29416;SDS011;28421;51.030;4.006;2024-02-04T06:37:04;2.83;;;1.95;;
29416;SDS011;28421;51.030;4.006;2024-02-04T06:39:29;2.22;;;2.05;;
29416;SDS011;28421;51.030;4.006;2024-02-04T06:41:56;2.70;;;2.45;;
29416;SDS011;28421;51.030;4.006;2024-02-04T06:44:21;2.00;;;1.90;;
29416;SDS011;28421;51.030;4.006;2024-02-04T06:46:46;2.67;;;2.30;;
29416;SDS011;28421;51.030;4.006;2024-02-04T06:49:13;1.75;;;1.60;;
29416;SDS011;28421;51.030;4.006;2024-02-04T06:51:43;2.50;;;2.03;;
29416;SDS011;28421;51.030;4.006;2024-02-04T06:54:09;5.28;;;2.50;;
29416;SDS011;28421;51.030;4.006;2024-02-04T06:56:36;3.45;;;2.60;;
29416;SDS011;28421;51.030;4.006;2024-02-04T06:59:02;4.25;;;3.10;;
29416;SDS011;28421;51.030;4.006;2024-02-04T07:01:27;3.55;;;2.60;;
29416;SDS011;28421;51.030;4.006;2024-02-04T07:03:54;3.65;;;2.38;;
29416;SDS011;28421;51.030;4.006;2024-02-04T07:06:19;1.80;;;1.70;;
29416;SDS011;28421;51.030;4.006;2024-02-04T07:08:45;2.20;;;1.98;;
29416;SDS011;28421;51.030;4.006;2024-02-04T07:11:10;5.50;;;3.40;;
29416;SDS011;28421;51.030;4.006;2024-02-04T07:13:36;2.25;;;1.63;;
29416;SDS011;28421;51.030;4.006;2024-02-04T07:16:01;7.95;;;3.00;;
29416;SDS011;28421;51.030;4.006;2024-02-04T07:18:27;7.45;;;2.50;;
29416;SDS011;28421;51.030;4.006;2024-02-04T07:20:52;2.58;;;1.45;;
29416;SDS011;28421;51.030;4.006;2024-02-04T07:23:18;3.88;;;2.53;;
29416;SDS011;28421;51.030;4.006;2024-02-04T07:25:43;3.17;;;2.60;;
29416;SDS011;28421;51.030;4.006;2024-02-04T07:28:09;2.50;;;2.30;;
29416;SDS011;28421;51.030;4.006;2024-02-04T07:30:34;4.07;;;2.78;;
29416;SDS011;28421;51.030;4.006;2024-02-04T07:33:00;2.42;;;2.22;;
29416;SDS011;28421;51.030;4.006;2024-02-04T07:35:25;2.38;;;2.17;;
29416;SDS011;28421;51.030;4.006;2024-02-04T07:37:51;5.95;;;2.53;;
29416;SDS011;28421;51.030;4.006;2024-02-04T07:40:16;2.78;;;2.17;;
29416;SDS011;28421;51.030;4.006;2024-02-04T07:42:42;1.98;;;1.80;;
29416;SDS011;28421;51.030;4.006;2024-02-04T07:45:08;3.08;;;2.65;;
29416;SDS011;28421;51.030;4.006;2024-02-04T07:47:35;2.95;;;2.67;;
29416;SDS011;28421;51.030;4.006;2024-02-04T07:50:01;6.97;;;3.90;;
29416;SDS011;28421;51.030;4.006;2024-02-04T07:52:26;6.47;;;2.40;;
29416;SDS011;28421;51.030;4.006;2024-02-04T07:54:52;5.72;;;3.00;;
29416;SDS011;28421;51.030;4.006;2024-02-04T07:57:18;5.00;;;3.15;;
29416;SDS011;28421;51.030;4.006;2024-02-04T07:59:43;3.42;;;2.53;;
29416;SDS011;28421;51.030;4.006;2024-02-04T08:02:09;2.83;;;2.50;;
29416;SDS011;28421;51.030;4.006;2024-02-04T08:04:34;1.67;;;1.52;;
29416;SDS011;28421;51.030;4.006;2024-02-04T08:06:59;2.92;;;1.35;;
29416;SDS011;28421;51.030;4.006;2024-02-04T08:09:25;1.70;;;1.60;;
29416;SDS011;28421;51.030;4.006;2024-02-04T08:11:51;3.13;;;1.50;;
29416;SDS011;28421;51.030;4.006;2024-02-04T08:14:16;1.17;;;1.13;;
29416;SDS011;28421;51.030;4.006;2024-02-04T08:16:42;3.05;;;2.28;;
29416;SDS011;28421;51.030;4.006;2024-02-04T08:19:08;1.80;;;1.52;;
29416;SDS011;28421;51.030;4.006;2024-02-04T08:21:34;6.53;;;1.40;;
29416;SDS011;28421;51.030;4.006;2024-02-04T08:23:59;1.88;;;1.02;;
29416;SDS011;28421;51.030;4.006;2024-02-04T08:26:25;2.17;;;1.77;;
29416;SDS011;28421;51.030;4.006;2024-02-04T08:28:51;1.17;;;1.08;;
29416;SDS011;28421;51.030;4.006;2024-02-04T08:31:17;1.48;;;1.35;;
29416;SDS011;28421;51.030;4.006;2024-02-04T08:33:42;1.00;;;0.95;;
29416;SDS011;28421;51.030;4.006;2024-02-04T08:36:08;0.82;;;0.82;;
29416;SDS011;28421;51.030;4.006;2024-02-04T08:38:36;1.15;;;1.13;;
29416;SDS011;28421;51.030;4.006;2024-02-04T08:41:02;1.42;;;1.33;;
29416;SDS011;28421;51.030;4.006;2024-02-04T08:43:28;2.33;;;2.13;;
29416;SDS011;28421;51.030;4.006;2024-02-04T08:45:54;1.60;;;1.33;;
29416;SDS011;28421;51.030;4.006;2024-02-04T08:48:19;2.33;;;1.58;;
29416;SDS011;28421;51.030;4.006;2024-02-04T08:50:45;1.52;;;1.42;;
29416;SDS011;28421;51.030;4.006;2024-02-04T08:53:10;3.83;;;2.67;;
29416;SDS011;28421;51.030;4.006;2024-02-04T08:55:36;1.77;;;1.67;;
29416;SDS011;28421;51.030;4.006;2024-02-04T08:58:01;4.32;;;2.67;;
29416;SDS011;28421;51.030;4.006;2024-02-04T09:00:27;4.72;;;3.08;;
29416;SDS011;28421;51.030;4.006;2024-02-04T09:02:52;3.35;;;2.97;;
29416;SDS011;28421;51.030;4.006;2024-02-04T09:05:17;4.05;;;3.58;;
29416;SDS011;28421;51.030;4.006;2024-02-04T09:07:43;5.22;;;3.80;;
29416;SDS011;28421;51.030;4.006;2024-02-04T09:10:09;7.60;;;4.80;;
29416;SDS011;28421;51.030;4.006;2024-02-04T09:12:34;6.45;;;3.20;;
29416;SDS011;28421;51.030;4.006;2024-02-04T09:15:01;3.72;;;3.05;;
29416;SDS011;28421;51.030;4.006;2024-02-04T09:17:26;5.35;;;3.60;;
29416;SDS011;28421;51.030;4.006;2024-02-04T09:19:52;3.55;;;3.13;;
29416;SDS011;28421;51.030;4.006;2024-02-04T09:22:18;4.20;;;3.30;;
29416;SDS011;28421;51.030;4.006;2024-02-04T09:24:43;4.90;;;3.42;;
29416;SDS011;28421;51.030;4.006;2024-02-04T09:27:09;4.80;;;3.47;;
29416;SDS011;28421;51.030;4.006;2024-02-04T09:29:34;2.70;;;2.50;;
29416;SDS011;28421;51.030;4.006;2024-02-04T09:32:01;4.63;;;3.35;;
29416;SDS011;28421;51.030;4.006;2024-02-04T09:34:27;3.92;;;1.92;;
29416;SDS011;28421;51.030;4.006;2024-02-04T09:36:52;2.67;;;2.28;;
29416;SDS011;28421;51.030;4.006;2024-02-04T09:39:18;8.63;;;2.80;;
29416;SDS011;28421;51.030;4.006;2024-02-04T09:41:44;7.57;;;2.78;;
29416;SDS011;28421;51.030;4.006;2024-02-04T09:44:09;1.80;;;1.70;;
29416;SDS011;28421;51.030;4.006;2024-02-04T09:46:36;1.23;;;1.13;;
29416;SDS011;28421;51.030;4.006;2024-02-04T09:49:02;1.52;;;1.42;;
29416;SDS011;28421;51.030;4.006;2024-02-04T09:51:29;1.65;;;1.45;;
29416;SDS011;28421;51.030;4.006;2024-02-04T09:53:54;1.85;;;1.75;;
29416;SDS011;28421;51.030;4.006;2024-02-04T09:56:25;2.15;;;1.95;;
29416;SDS011;28421;51.030;4.006;2024-02-04T09:58:51;2.05;;;1.90;;
29416;SDS011;28421;51.030;4.006;2024-02-04T10:01:18;1.75;;;1.65;;
29416;SDS011;28421;51.030;4.006;2024-02-04T10:03:47;9.05;;;2.50;;
29416;SDS011;28421;51.030;4.006;2024-02-04T10:06:12;1.92;;;1.77;;
29416;SDS011;28421;51.030;4.006;2024-02-04T10:08:38;4.82;;;3.53;;
29416;SDS011;28421;51.030;4.006;2024-02-04T10:11:04;0.80;;;0.80;;
29416;SDS011;28421;51.030;4.006;2024-02-04T10:13:30;3.30;;;1.55;;
29416;SDS011;28421;51.030;4.006;2024-02-04T10:15:55;1.30;;;1.20;;
29416;SDS011;28421;51.030;4.006;2024-02-04T10:18:21;1.73;;;1.50;;
29416;SDS011;28421;51.030;4.006;2024-02-04T10:20:47;3.65;;;1.48;;
29416;SDS011;28421;51.030;4.006;2024-02-04T10:23:13;5.20;;;1.10;;
29416;SDS011;28421;51.030;4.006;2024-02-04T10:25:39;1.55;;;1.42;;
29416;SDS011;28421;51.030;4.006;2024-02-04T10:28:04;2.60;;;1.27;;
29416;SDS011;28421;51.030;4.006;2024-02-04T10:30:30;3.58;;;1.13;;
29416;SDS011;28421;51.030;4.006;2024-02-04T10:32:56;1.85;;;1.45;;
29416;SDS011;28421;51.030;4.006;2024-02-04T10:35:22;1.25;;;1.17;;
29416;SDS011;28421;51.030;4.006;2024-02-04T10:37:50;2.22;;;2.13;;
29416;SDS011;28421;51.030;4.006;2024-02-04T10:40:16;1.83;;;1.58;;
29416;SDS011;28421;51.030;4.006;2024-02-04T10:42:42;1.77;;;1.60;;
29416;SDS011;28421;51.030;4.006;2024-02-04T10:45:09;8.50;;;1.98;;
29416;SDS011;28421;51.030;4.006;2024-02-04T10:47:39;1.83;;;1.27;;
29416;SDS011;28421;51.030;4.006;2024-02-04T10:50:06;1.83;;;1.27;;
29416;SDS011;28421;51.030;4.006;2024-02-04T10:52:38;2.63;;;2.08;;
29416;SDS011;28421;51.030;4.006;2024-02-04T10:55:06;3.33;;;1.80;;
29416;SDS011;28421;51.030;4.006;2024-02-04T10:57:33;8.68;;;1.20;;
29416;SDS011;28421;51.030;4.006;2024-02-04T10:59:59;1.60;;;1.20;;
29416;SDS011;28421;51.030;4.006;2024-02-04T11:02:27;2.65;;;1.67;;
29416;SDS011;28421;51.030;4.006;2024-02-04T11:04:53;4.07;;;1.80;;
29416;SDS011;28421;51.030;4.006;2024-02-04T11:07:19;8.18;;;2.95;;
29416;SDS011;28421;51.030;4.006;2024-02-04T11:09:46;2.90;;;2.47;;
29416;SDS011;28421;51.030;4.006;2024-02-04T11:12:16;2.50;;;1.73;;
29416;SDS011;28421;51.030;4.006;2024-02-04T11:14:45;2.63;;;2.15;;
29416;SDS011;28421;51.030;4.006;2024-02-04T11:20:23;2.40;;;2.20;;
29416;SDS011;28421;51.030;4.006;2024-02-04T11:26:05;2.97;;;2.22;;
29416;SDS011;28421;51.030;4.006;2024-02-04T11:28:31;2.30;;;1.85;;
29416;SDS011;28421;51.030;4.006;2024-02-04T11:30:58;2.45;;;2.25;;
29416;SDS011;28421;51.030;4.006;2024-02-04T11:33:24;1.52;;;1.40;;
29416;SDS011;28421;51.030;4.006;2024-02-04T11:36:05;6.35;;;3.33;;
29416;SDS011;28421;51.030;4.006;2024-02-04T11:38:35;3.15;;;2.45;;
29416;SDS011;28421;51.030;4.006;2024-02-04T11:41:05;1.40;;;1.30;;
29416;SDS011;28421;51.030;4.006;2024-02-04T11:43:34;18.25;;;2.30;;
29416;SDS011;28421;51.030;4.006;2024-02-04T11:46:04;2.10;;;1.90;;
29416;SDS011;28421;51.030;4.006;2024-02-04T11:48:31;4.60;;;1.33;;
29416;SDS011;28421;51.030;4.006;2024-02-04T11:50:58;2.42;;;2.25;;
29416;SDS011;28421;51.030;4.006;2024-02-04T11:53:28;1.17;;;1.10;;
29416;SDS011;28421;51.030;4.006;2024-02-04T11:55:57;1.50;;;1.42;;
29416;SDS011;28421;51.030;4.006;2024-02-04T11:58:25;2.80;;;1.30;;
29416;SDS011;28421;51.030;4.006;2024-02-04T12:00:52;6.53;;;2.35;;
29416;SDS011;28421;51.030;4.006;2024-02-04T12:03:29;0.95;;;0.95;;
29416;SDS011;28421;51.030;4.006;2024-02-04T12:05:58;3.08;;;1.25;;
29416;SDS011;28421;51.030;4.006;2024-02-04T12:08:24;1.83;;;1.73;;
29416;SDS011;28421;51.030;4.006;2024-02-04T12:10:52;2.20;;;2.03;;
29416;SDS011;28421;51.030;4.006;2024-02-04T12:13:18;4.95;;;1.35;;
29416;SDS011;28421;51.030;4.006;2024-02-04T12:15:44;6.95;;;1.92;;
29416;SDS011;28421;51.030;4.006;2024-02-04T12:18:10;1.30;;;1.05;;
29416;SDS011;28421;51.030;4.006;2024-02-04T12:20:37;2.42;;;1.20;;
29416;SDS011;28421;51.030;4.006;2024-02-04T12:23:03;1.45;;;1.35;;
29416;SDS011;28421;51.030;4.006;2024-02-04T12:25:30;1.42;;;1.33;;
29416;SDS011;28421;51.030;4.006;2024-02-04T12:27:59;1.20;;;1.17;;
29416;SDS011;28421;51.030;4.006;2024-02-04T12:30:28;3.17;;;1.60;;
29416;SDS011;28421;51.030;4.006;2024-02-04T12:33:00;0.80;;;0.80;;
29416;SDS011;28421;51.030;4.006;2024-02-04T12:35:29;1.63;;;1.50;;
29416;SDS011;28421;51.030;4.006;2024-02-04T12:37:55;1.00;;;1.00;;
29416;SDS011;28421;51.030;4.006;2024-02-04T12:40:22;1.23;;;1.15;;
29416;SDS011;28421;51.030;4.006;2024-02-04T12:43:07;0.75;;;0.75;;
29416;SDS011;28421;51.030;4.006;2024-02-04T12:45:36;1.17;;;0.70;;
29416;SDS011;28421;51.030;4.006;2024-02-04T12:48:01;0.75;;;0.75;;
29416;SDS011;28421;51.030;4.006;2024-02-04T12:50:28;1.48;;;0.75;;
29416;SDS011;28421;51.030;4.006;2024-02-04T12:53:01;0.60;;;0.60;;
29416;SDS011;28421;51.030;4.006;2024-02-04T12:55:32;1.70;;;0.75;;
29416;SDS011;28421;51.030;4.006;2024-02-04T12:58:05;0.70;;;0.70;;
29416;SDS011;28421;51.030;4.006;2024-02-04T13:00:33;0.60;;;0.60;;
29416;SDS011;28421;51.030;4.006;2024-02-04T13:02:59;1.23;;;1.13;;
29416;SDS011;28421;51.030;4.006;2024-02-04T13:05:25;0.77;;;0.77;;
29416;SDS011;28421;51.030;4.006;2024-02-04T13:07:55;0.90;;;0.90;;
29416;SDS011;28421;51.030;4.006;2024-02-04T13:10:24;1.50;;;1.02;;
29416;SDS011;28421;51.030;4.006;2024-02-04T13:12:57;2.60;;;0.60;;
29416;SDS011;28421;51.030;4.006;2024-02-04T13:17:54;0.73;;;0.73;;
29416;SDS011;28421;51.030;4.006;2024-02-04T13:20:21;0.80;;;0.80;;
29416;SDS011;28421;51.030;4.006;2024-02-04T13:22:48;1.27;;;0.90;;
29416;SDS011;28421;51.030;4.006;2024-02-04T13:25:13;0.80;;;0.80;;
29416;SDS011;28421;51.030;4.006;2024-02-04T13:27:40;3.28;;;1.05;;
29416;SDS011;28421;51.030;4.006;2024-02-04T13:30:06;1.20;;;0.98;;
29416;SDS011;28421;51.030;4.006;2024-02-04T13:32:38;1.42;;;1.33;;
29416;SDS011;28421;51.030;4.006;2024-02-04T13:35:05;0.85;;;0.85;;
29416;SDS011;28421;51.030;4.006;2024-02-04T13:37:31;0.60;;;0.60;;
29416;SDS011;28421;51.030;4.006;2024-02-04T13:39:56;4.25;;;0.80;;
29416;SDS011;28421;51.030;4.006;2024-02-04T13:42:22;2.72;;;0.82;;
29416;SDS011;28421;51.030;4.006;2024-02-04T13:44:48;1.45;;;1.38;;
29416;SDS011;28421;51.030;4.006;2024-02-04T13:47:14;0.60;;;0.52;;
29416;SDS011;28421;51.030;4.006;2024-02-04T13:49:39;1.42;;;1.05;;
29416;SDS011;28421;51.030;4.006;2024-02-04T13:52:05;1.77;;;1.52;;
29416;SDS011;28421;51.030;4.006;2024-02-04T13:54:30;0.63;;;0.63;;
29416;SDS011;28421;51.030;4.006;2024-02-04T13:56:56;1.23;;;1.10;;
29416;SDS011;28421;51.030;4.006;2024-02-04T13:59:21;3.33;;;1.90;;
29416;SDS011;28421;51.030;4.006;2024-02-04T14:01:47;2.63;;;1.75;;
29416;SDS011;28421;51.030;4.006;2024-02-04T14:04:12;11.48;;;2.58;;
29416;SDS011;28421;51.030;4.006;2024-02-04T14:06:38;1.05;;;1.05;;
29416;SDS011;28421;51.030;4.006;2024-02-04T14:09:03;1.25;;;1.25;;
29416;SDS011;28421;51.030;4.006;2024-02-04T14:11:30;1.77;;;1.38;;
29416;SDS011;28421;51.030;4.006;2024-02-04T14:13:56;1.75;;;1.05;;
29416;SDS011;28421;51.030;4.006;2024-02-04T14:16:21;5.00;;;2.40;;
29416;SDS011;28421;51.030;4.006;2024-02-04T14:18:47;1.25;;;1.20;;
29416;SDS011;28421;51.030;4.006;2024-02-04T14:21:12;2.72;;;1.15;;
29416;SDS011;28421;51.030;4.006;2024-02-04T14:23:41;1.25;;;1.20;;
29416;SDS011;28421;51.030;4.006;2024-02-04T14:26:08;5.43;;;1.58;;
29416;SDS011;28421;51.030;4.006;2024-02-04T14:28:41;4.22;;;2.38;;
29416;SDS011;28421;51.030;4.006;2024-02-04T14:31:07;2.13;;;1.92;;
29416;SDS011;28421;51.030;4.006;2024-02-04T14:33:32;2.97;;;1.25;;
29416;SDS011;28421;51.030;4.006;2024-02-04T14:35:58;3.15;;;1.55;;
29416;SDS011;28421;51.030;4.006;2024-02-04T14:38:25;1.75;;;1.60;;
29416;SDS011;28421;51.030;4.006;2024-02-04T14:40:51;5.93;;;2.00;;
29416;SDS011;28421;51.030;4.006;2024-02-04T14:43:17;1.00;;;1.00;;
29416;SDS011;28421;51.030;4.006;2024-02-04T14:45:43;7.20;;;2.47;;
29416;SDS011;28421;51.030;4.006;2024-02-04T14:48:09;6.63;;;1.95;;
29416;SDS011;28421;51.030;4.006;2024-02-04T14:50:34;2.80;;;2.50;;
29416;SDS011;28421;51.030;4.006;2024-02-04T14:53:00;1.15;;;1.08;;
29416;SDS011;28421;51.030;4.006;2024-02-04T14:55:26;5.13;;;1.65;;
29416;SDS011;28421;51.030;4.006;2024-02-04T14:57:52;0.65;;;0.65;;